sensor_id;sensor_type;location;lat;lon;timestamp;P1;P2;P0
50587;PMS7003;70782;50.514;30.816;2024-03-02T00:00:07;87.60;71.70;43.30
50587;PMS7003;70782;50.514;30.816;2024-03-02T00:01:11;83.80;67.10;41.40
50587;PMS7003;70782;50.514;30.816;2024-03-02T00:02:14;82.70;65.20;42.20
50587;PMS7003;70782;50.514;30.816;2024-03-02T00:03:17;83.20;68.90;42.60
50587;PMS7003;70782;50.514;30.816;2024-03-02T00:04:20;83.10;67.60;43.20
50587;PMS7003;70782;50.514;30.816;2024-03-02T00:05:22;87.10;68.50;43.60
50587;PMS7003;70782;50.514;30.816;2024-03-02T00:06:24;86.40;67.80;41.70
50587;PMS7003;70782;50.514;30.816;2024-03-02T00:07:28;85.20;68.80;41.00
50587;PMS7003;70782;50.514;30.816;2024-03-02T00:08:30;84.10;66.60;40.70
50587;PMS7003;70782;50.514;30.816;2024-03-02T00:09:32;81.70;64.10;38.30
50587;PMS7003;70782;50.514;30.816;2024-03-02T00:10:38;81.80;63.00;39.50
50587;PMS7003;70782;50.514;30.816;2024-03-02T00:11:41;75.10;59.40;37.50
50587;PMS7003;70782;50.514;30.816;2024-03-02T00:12:43;75.20;59.60;38.10
50587;PMS7003;70782;50.514;30.816;2024-03-02T00:13:49;80.10;62.00;39.20
50587;PMS7003;70782;50.514;30.816;2024-03-02T00:14:54;78.70;61.80;40.20
50587;PMS7003;70782;50.514;30.816;2024-03-02T00:15:57;72.20;57.90;34.90
50587;PMS7003;70782;50.514;30.816;2024-03-02T00:17:00;80.80;62.20;39.10
50587;PMS7003;70782;50.514;30.816;2024-03-02T00:18:03;79.40;61.80;39.70
50587;PMS7003;70782;50.514;30.816;2024-03-02T00:19:06;76.30;60.00;37.90
50587;PMS7003;70782;50.514;30.816;2024-03-02T00:20:09;77.82;61.27;39.55
50587;PMS7003;70782;50.514;30.816;2024-03-02T00:21:12;77.45;60.09;38.18
50587;PMS7003;70782;50.514;30.816;2024-03-02T00:22:14;83.50;63.90;39.40
50587;PMS7003;70782;50.514;30.816;2024-03-02T00:23:17;84.50;64.30;40.70
50587;PMS7003;70782;50.514;30.816;2024-03-02T00:24:21;89.30;71.70;42.60
50587;PMS7003;70782;50.514;30.816;2024-03-02T00:25:27;88.80;72.10;42.10
50587;PMS7003;70782;50.514;30.816;2024-03-02T00:26:29;88.90;72.70;42.20
50587;PMS7003;70782;50.514;30.816;2024-03-02T00:27:32;88.90;72.30;42.10
50587;PMS7003;70782;50.514;30.816;2024-03-02T00:28:35;97.70;84.50;47.30
50587;PMS7003;70782;50.514;30.816;2024-03-02T00:29:38;91.10;75.80;43.90
50587;PMS7003;70782;50.514;30.816;2024-03-02T00:32:00;89.00;66.70;41.70
50587;PMS7003;70782;50.514;30.816;2024-03-02T00:33:06;86.00;66.70;40.70
50587;PMS7003;70782;50.514;30.816;2024-03-02T00:34:08;85.00;67.00;39.90
50587;PMS7003;70782;50.514;30.816;2024-03-02T00:35:11;74.90;56.70;32.90
50587;PMS7003;70782;50.514;30.816;2024-03-02T00:36:14;83.80;64.70;40.90
50587;PMS7003;70782;50.514;30.816;2024-03-02T00:37:24;83.30;69.70;41.90
50587;PMS7003;70782;50.514;30.816;2024-03-02T00:38:27;82.30;64.90;40.00
50587;PMS7003;70782;50.514;30.816;2024-03-02T00:39:30;82.60;65.30;40.10
50587;PMS7003;70782;50.514;30.816;2024-03-02T00:40:32;82.70;63.20;40.00
50587;PMS7003;70782;50.514;30.816;2024-03-02T00:41:34;80.00;65.10;39.70
50587;PMS7003;70782;50.514;30.816;2024-03-02T00:42:37;80.50;64.20;39.90
50587;PMS7003;70782;50.514;30.816;2024-03-02T00:43:43;79.10;61.10;39.10
50587;PMS7003;70782;50.514;30.816;2024-03-02T00:44:54;80.10;63.90;38.30
50587;PMS7003;70782;50.514;30.816;2024-03-02T00:45:56;81.20;64.90;40.10
50587;PMS7003;70782;50.514;30.816;2024-03-02T00:46:58;80.40;63.20;39.70
50587;PMS7003;70782;50.514;30.816;2024-03-02T00:48:01;87.50;65.90;40.70
50587;PMS7003;70782;50.514;30.816;2024-03-02T00:49:04;84.70;68.20;41.20
50587;PMS7003;70782;50.514;30.816;2024-03-02T00:50:08;90.40;72.50;40.90
50587;PMS7003;70782;50.514;30.816;2024-03-02T00:51:13;97.90;82.90;47.40
50587;PMS7003;70782;50.514;30.816;2024-03-02T00:52:16;93.20;78.40;43.10
50587;PMS7003;70782;50.514;30.816;2024-03-02T00:53:18;90.80;75.70;43.20
50587;PMS7003;70782;50.514;30.816;2024-03-02T00:54:26;86.60;68.20;41.20
50587;PMS7003;70782;50.514;30.816;2024-03-02T00:55:32;77.30;60.70;36.00
50587;PMS7003;70782;50.514;30.816;2024-03-02T00:56:38;79.60;63.40;40.20
50587;PMS7003;70782;50.514;30.816;2024-03-02T00:57:40;82.10;63.10;40.60
50587;PMS7003;70782;50.514;30.816;2024-03-02T00:58:43;78.80;61.60;38.50
50587;PMS7003;70782;50.514;30.816;2024-03-02T00:59:45;77.80;62.00;37.70
50587;PMS7003;70782;50.514;30.816;2024-03-02T01:00:48;73.60;58.10;37.10
50587;PMS7003;70782;50.514;30.816;2024-03-02T01:01:50;73.30;58.20;37.00
50587;PMS7003;70782;50.514;30.816;2024-03-02T01:02:53;69.40;53.20;35.10
50587;PMS7003;70782;50.514;30.816;2024-03-02T01:03:55;72.40;57.40;35.80
50587;PMS7003;70782;50.514;30.816;2024-03-02T01:04:58;72.20;57.50;36.70
50587;PMS7003;70782;50.514;30.816;2024-03-02T01:06:01;75.90;58.50;36.80
50587;PMS7003;70782;50.514;30.816;2024-03-02T01:07:03;75.20;59.70;37.20
50587;PMS7003;70782;50.514;30.816;2024-03-02T01:08:06;75.50;58.70;36.20
50587;PMS7003;70782;50.514;30.816;2024-03-02T01:09:08;74.20;58.40;36.50
50587;PMS7003;70782;50.514;30.816;2024-03-02T01:10:11;75.80;59.30;36.80
50587;PMS7003;70782;50.514;30.816;2024-03-02T01:11:13;32.50;23.60;11.20
50587;PMS7003;70782;50.514;30.816;2024-03-02T01:12:16;71.50;56.30;35.00
50587;PMS7003;70782;50.514;30.816;2024-03-02T01:13:18;66.40;54.00;34.90
50587;PMS7003;70782;50.514;30.816;2024-03-02T01:14:21;73.50;57.40;35.50
50587;PMS7003;70782;50.514;30.816;2024-03-02T01:15:23;69.30;54.40;34.50
50587;PMS7003;70782;50.514;30.816;2024-03-02T01:16:26;66.50;53.60;34.10
50587;PMS7003;70782;50.514;30.816;2024-03-02T01:17:29;67.80;54.70;34.20
50587;PMS7003;70782;50.514;30.816;2024-03-02T01:18:31;68.30;54.70;35.00
50587;PMS7003;70782;50.514;30.816;2024-03-02T01:19:34;73.10;55.30;32.70
50587;PMS7003;70782;50.514;30.816;2024-03-02T01:20:36;69.20;55.70;35.10
50587;PMS7003;70782;50.514;30.816;2024-03-02T01:21:39;74.00;57.70;35.80
50587;PMS7003;70782;50.514;30.816;2024-03-02T01:22:41;74.90;58.70;35.40
50587;PMS7003;70782;50.514;30.816;2024-03-02T01:23:44;81.90;62.70;39.10
50587;PMS7003;70782;50.514;30.816;2024-03-02T01:24:47;81.90;66.00;39.20
50587;PMS7003;70782;50.514;30.816;2024-03-02T01:25:49;86.20;67.20;39.70
50587;PMS7003;70782;50.514;30.816;2024-03-02T01:26:53;70.00;51.80;20.10
50587;PMS7003;70782;50.514;30.816;2024-03-02T01:27:55;85.80;63.60;38.80
50587;PMS7003;70782;50.514;30.816;2024-03-02T01:28:57;76.50;56.80;32.80
50587;PMS7003;70782;50.514;30.816;2024-03-02T01:30:00;81.90;61.90;37.10
50587;PMS7003;70782;50.514;30.816;2024-03-02T01:31:02;76.20;60.00;37.80
50587;PMS7003;70782;50.514;30.816;2024-03-02T01:32:05;81.60;61.00;37.50
50587;PMS7003;70782;50.514;30.816;2024-03-02T01:33:08;81.00;61.30;39.10
50587;PMS7003;70782;50.514;30.816;2024-03-02T01:34:10;80.10;61.90;38.10
50587;PMS7003;70782;50.514;30.816;2024-03-02T01:35:13;78.90;60.80;37.90
50587;PMS7003;70782;50.514;30.816;2024-03-02T01:36:16;79.20;61.60;38.20
50587;PMS7003;70782;50.514;30.816;2024-03-02T01:37:18;80.90;62.50;39.30
50587;PMS7003;70782;50.514;30.816;2024-03-02T01:38:20;75.30;60.70;37.70
50587;PMS7003;70782;50.514;30.816;2024-03-02T01:39:23;77.40;59.80;38.30
50587;PMS7003;70782;50.514;30.816;2024-03-02T01:40:25;77.00;58.60;35.20
50587;PMS7003;70782;50.514;30.816;2024-03-02T01:41:28;78.40;61.50;37.50
50587;PMS7003;70782;50.514;30.816;2024-03-02T01:42:30;81.00;62.70;39.00
50587;PMS7003;70782;50.514;30.816;2024-03-02T01:43:33;79.20;61.30;38.70
50587;PMS7003;70782;50.514;30.816;2024-03-02T01:44:35;81.50;62.20;39.10
50587;PMS7003;70782;50.514;30.816;2024-03-02T01:45:38;74.60;58.80;37.50
50587;PMS7003;70782;50.514;30.816;2024-03-02T01:46:41;80.80;61.60;38.80
50587;PMS7003;70782;50.514;30.816;2024-03-02T01:47:43;79.80;62.70;38.10
50587;PMS7003;70782;50.514;30.816;2024-03-02T01:48:45;81.40;63.10;39.30
50587;PMS7003;70782;50.514;30.816;2024-03-02T01:49:48;77.00;60.60;39.40
50587;PMS7003;70782;50.514;30.816;2024-03-02T01:50:50;84.60;67.00;40.50
50587;PMS7003;70782;50.514;30.816;2024-03-02T01:51:52;83.20;65.30;39.70
50587;PMS7003;70782;50.514;30.816;2024-03-02T01:52:55;82.40;64.70;38.60
50587;PMS7003;70782;50.514;30.816;2024-03-02T01:53:58;76.30;59.60;37.70
50587;PMS7003;70782;50.514;30.816;2024-03-02T01:55:00;76.80;58.80;37.10
50587;PMS7003;70782;50.514;30.816;2024-03-02T01:56:03;74.20;57.10;36.10
50587;PMS7003;70782;50.514;30.816;2024-03-02T01:57:06;70.91;56.00;36.64
50587;PMS7003;70782;50.514;30.816;2024-03-02T01:58:08;71.40;56.90;36.50
50587;PMS7003;70782;50.514;30.816;2024-03-02T01:59:11;75.10;58.90;37.10
50587;PMS7003;70782;50.514;30.816;2024-03-02T02:00:15;70.90;57.10;36.20
50587;PMS7003;70782;50.514;30.816;2024-03-02T02:01:17;73.20;57.00;36.90
50587;PMS7003;70782;50.514;30.816;2024-03-02T02:02:20;70.90;58.40;36.50
50587;PMS7003;70782;50.514;30.816;2024-03-02T02:03:22;75.40;60.20;38.20
50587;PMS7003;70782;50.514;30.816;2024-03-02T02:04:25;69.70;54.20;33.40
50587;PMS7003;70782;50.514;30.816;2024-03-02T02:05:27;71.70;58.70;38.00
50587;PMS7003;70782;50.514;30.816;2024-03-02T02:06:30;75.30;59.50;37.70
50587;PMS7003;70782;50.514;30.816;2024-03-02T02:07:32;76.60;60.70;38.80
50587;PMS7003;70782;50.514;30.816;2024-03-02T02:08:34;73.70;58.10;36.90
50587;PMS7003;70782;50.514;30.816;2024-03-02T02:09:39;71.90;58.50;37.70
50587;PMS7003;70782;50.514;30.816;2024-03-02T02:10:41;75.60;59.50;38.30
50587;PMS7003;70782;50.514;30.816;2024-03-02T02:11:44;75.80;59.10;37.10
50587;PMS7003;70782;50.514;30.816;2024-03-02T02:12:47;77.20;57.60;35.90
50587;PMS7003;70782;50.514;30.816;2024-03-02T02:13:49;69.90;56.70;36.90
50587;PMS7003;70782;50.514;30.816;2024-03-02T02:14:52;72.70;58.50;36.60
50587;PMS7003;70782;50.514;30.816;2024-03-02T02:15:54;74.70;58.40;36.30
50587;PMS7003;70782;50.514;30.816;2024-03-02T02:16:57;72.80;57.00;36.70
50587;PMS7003;70782;50.514;30.816;2024-03-02T02:18:00;70.40;57.90;35.90
50587;PMS7003;70782;50.514;30.816;2024-03-02T02:19:02;73.30;58.80;36.70
50587;PMS7003;70782;50.514;30.816;2024-03-02T02:20:05;72.50;57.50;36.50
50587;PMS7003;70782;50.514;30.816;2024-03-02T02:21:08;74.60;58.30;37.00
50587;PMS7003;70782;50.514;30.816;2024-03-02T02:22:11;76.50;57.70;37.30
50587;PMS7003;70782;50.514;30.816;2024-03-02T02:23:13;71.60;56.80;36.40
50587;PMS7003;70782;50.514;30.816;2024-03-02T02:24:16;71.60;55.40;34.20
50587;PMS7003;70782;50.514;30.816;2024-03-02T02:25:20;66.60;53.90;33.80
50587;PMS7003;70782;50.514;30.816;2024-03-02T02:26:22;67.40;55.40;34.90
50587;PMS7003;70782;50.514;30.816;2024-03-02T02:27:24;65.90;52.40;33.70
50587;PMS7003;70782;50.514;30.816;2024-03-02T02:28:27;67.60;54.10;34.50
50587;PMS7003;70782;50.514;30.816;2024-03-02T02:29:29;66.00;53.50;32.90
50587;PMS7003;70782;50.514;30.816;2024-03-02T02:30:32;67.10;52.80;33.90
50587;PMS7003;70782;50.514;30.816;2024-03-02T02:31:38;69.40;55.30;35.90
50587;PMS7003;70782;50.514;30.816;2024-03-02T02:32:41;69.40;55.70;34.80
50587;PMS7003;70782;50.514;30.816;2024-03-02T02:33:44;69.10;55.20;35.00
50587;PMS7003;70782;50.514;30.816;2024-03-02T02:34:46;70.30;54.90;35.10
50587;PMS7003;70782;50.514;30.816;2024-03-02T02:35:48;68.90;56.50;35.00
50587;PMS7003;70782;50.514;30.816;2024-03-02T02:36:51;67.70;55.20;35.20
50587;PMS7003;70782;50.514;30.816;2024-03-02T02:37:54;66.00;52.50;30.80
50587;PMS7003;70782;50.514;30.816;2024-03-02T02:38:57;71.40;56.20;35.00
50587;PMS7003;70782;50.514;30.816;2024-03-02T02:40:02;72.10;56.90;36.10
50587;PMS7003;70782;50.514;30.816;2024-03-02T02:41:05;68.27;55.55;36.09
50587;PMS7003;70782;50.514;30.816;2024-03-02T02:42:07;60.90;49.90;32.70
50587;PMS7003;70782;50.514;30.816;2024-03-02T02:43:10;68.60;54.50;34.80
50587;PMS7003;70782;50.514;30.816;2024-03-02T02:44:12;63.60;51.40;33.10
50587;PMS7003;70782;50.514;30.816;2024-03-02T02:45:15;67.00;53.60;34.00
50587;PMS7003;70782;50.514;30.816;2024-03-02T02:46:18;66.00;51.70;33.40
50587;PMS7003;70782;50.514;30.816;2024-03-02T02:47:20;63.20;52.10;32.70
50587;PMS7003;70782;50.514;30.816;2024-03-02T02:48:23;63.70;51.70;33.40
50587;PMS7003;70782;50.514;30.816;2024-03-02T02:49:25;63.70;52.60;33.50
50587;PMS7003;70782;50.514;30.816;2024-03-02T02:50:28;63.10;49.60;31.30
50587;PMS7003;70782;50.514;30.816;2024-03-02T02:51:30;61.60;50.00;30.80
50587;PMS7003;70782;50.514;30.816;2024-03-02T02:52:36;60.70;49.90;32.80
50587;PMS7003;70782;50.514;30.816;2024-03-02T02:53:40;60.60;49.90;32.90
50587;PMS7003;70782;50.514;30.816;2024-03-02T02:54:42;60.80;50.30;33.00
50587;PMS7003;70782;50.514;30.816;2024-03-02T02:55:44;58.20;49.50;32.40
50587;PMS7003;70782;50.514;30.816;2024-03-02T02:56:47;60.70;50.70;32.60
50587;PMS7003;70782;50.514;30.816;2024-03-02T02:57:49;61.50;49.60;32.30
50587;PMS7003;70782;50.514;30.816;2024-03-02T02:58:51;60.90;48.80;32.10
50587;PMS7003;70782;50.514;30.816;2024-03-02T02:59:54;55.00;45.90;28.70
50587;PMS7003;70782;50.514;30.816;2024-03-02T03:00:56;59.30;48.90;31.00
50587;PMS7003;70782;50.514;30.816;2024-03-02T03:01:59;60.10;49.30;32.10
50587;PMS7003;70782;50.514;30.816;2024-03-02T03:03:01;59.80;48.50;32.30
50587;PMS7003;70782;50.514;30.816;2024-03-02T03:04:04;62.50;49.70;30.60
50587;PMS7003;70782;50.514;30.816;2024-03-02T03:05:06;58.73;48.36;32.55
50587;PMS7003;70782;50.514;30.816;2024-03-02T03:06:10;59.20;48.60;30.60
50587;PMS7003;70782;50.514;30.816;2024-03-02T03:07:12;61.00;49.00;32.00
50587;PMS7003;70782;50.514;30.816;2024-03-02T03:08:15;59.10;48.40;33.00
50587;PMS7003;70782;50.514;30.816;2024-03-02T03:09:17;58.50;49.00;31.50
50587;PMS7003;70782;50.514;30.816;2024-03-02T03:10:20;58.10;48.10;31.50
50587;PMS7003;70782;50.514;30.816;2024-03-02T03:11:22;56.20;47.00;29.70
50587;PMS7003;70782;50.514;30.816;2024-03-02T03:12:25;57.30;47.10;29.60
50587;PMS7003;70782;50.514;30.816;2024-03-02T03:13:27;57.40;47.20;29.50
50587;PMS7003;70782;50.514;30.816;2024-03-02T03:14:30;56.20;46.00;30.50
50587;PMS7003;70782;50.514;30.816;2024-03-02T03:15:32;56.90;47.70;30.50
50587;PMS7003;70782;50.514;30.816;2024-03-02T03:16:36;57.00;47.10;29.30
50587;PMS7003;70782;50.514;30.816;2024-03-02T03:17:39;57.20;47.50;30.90
50587;PMS7003;70782;50.514;30.816;2024-03-02T03:18:42;59.27;48.00;28.91
50587;PMS7003;70782;50.514;30.816;2024-03-02T03:19:44;59.40;48.70;30.30
50587;PMS7003;70782;50.514;30.816;2024-03-02T03:20:47;59.60;47.40;29.90
50587;PMS7003;70782;50.514;30.816;2024-03-02T03:21:49;59.10;48.90;31.00
50587;PMS7003;70782;50.514;30.816;2024-03-02T03:22:51;57.70;46.70;30.50
50587;PMS7003;70782;50.514;30.816;2024-03-02T03:23:53;59.20;48.90;29.90
50587;PMS7003;70782;50.514;30.816;2024-03-02T03:24:55;57.80;47.30;29.20
50587;PMS7003;70782;50.514;30.816;2024-03-02T03:25:58;57.10;46.50;30.40
50587;PMS7003;70782;50.514;30.816;2024-03-02T03:27:00;59.30;48.00;29.50
50587;PMS7003;70782;50.514;30.816;2024-03-02T03:28:03;58.70;48.10;30.10
50587;PMS7003;70782;50.514;30.816;2024-03-02T03:29:06;60.60;48.60;32.70
50587;PMS7003;70782;50.514;30.816;2024-03-02T03:30:09;62.40;48.60;31.20
50587;PMS7003;70782;50.514;30.816;2024-03-02T03:31:12;60.00;47.70;29.50
50587;PMS7003;70782;50.514;30.816;2024-03-02T03:32:14;60.60;49.20;30.80
50587;PMS7003;70782;50.514;30.816;2024-03-02T03:33:17;56.70;44.90;28.60
50587;PMS7003;70782;50.514;30.816;2024-03-02T03:34:19;59.30;47.30;28.60
50587;PMS7003;70782;50.514;30.816;2024-03-02T03:35:22;56.80;46.90;29.60
50587;PMS7003;70782;50.514;30.816;2024-03-02T03:36:24;55.60;44.40;30.40
50587;PMS7003;70782;50.514;30.816;2024-03-02T03:37:27;57.30;48.30;30.70
50587;PMS7003;70782;50.514;30.816;2024-03-02T03:38:29;57.30;47.50;31.00
50587;PMS7003;70782;50.514;30.816;2024-03-02T03:39:31;57.30;45.30;29.90
50587;PMS7003;70782;50.514;30.816;2024-03-02T03:40:36;57.10;45.50;30.00
50587;PMS7003;70782;50.514;30.816;2024-03-02T03:41:38;53.50;44.60;27.50
50587;PMS7003;70782;50.514;30.816;2024-03-02T03:42:42;59.70;49.00;30.90
50587;PMS7003;70782;50.514;30.816;2024-03-02T03:43:45;57.60;46.70;29.90
50587;PMS7003;70782;50.514;30.816;2024-03-02T03:44:47;56.00;46.60;30.00
50587;PMS7003;70782;50.514;30.816;2024-03-02T03:45:49;57.10;45.30;29.50
50587;PMS7003;70782;50.514;30.816;2024-03-02T03:46:52;56.40;46.20;29.10
50587;PMS7003;70782;50.514;30.816;2024-03-02T03:47:54;56.10;46.90;28.80
50587;PMS7003;70782;50.514;30.816;2024-03-02T03:48:57;47.00;40.80;26.80
50587;PMS7003;70782;50.514;30.816;2024-03-02T03:49:59;53.27;44.73;29.09
50587;PMS7003;70782;50.514;30.816;2024-03-02T03:51:01;57.60;47.60;29.80
50587;PMS7003;70782;50.514;30.816;2024-03-02T03:52:04;53.30;42.80;28.30
50587;PMS7003;70782;50.514;30.816;2024-03-02T03:53:06;58.80;47.00;30.20
50587;PMS7003;70782;50.514;30.816;2024-03-02T03:54:09;56.20;46.60;29.70
50587;PMS7003;70782;50.514;30.816;2024-03-02T03:55:11;52.70;45.30;29.50
50587;PMS7003;70782;50.514;30.816;2024-03-02T03:56:14;51.60;43.40;28.10
50587;PMS7003;70782;50.514;30.816;2024-03-02T03:57:16;52.10;43.40;29.10
50587;PMS7003;70782;50.514;30.816;2024-03-02T03:58:19;53.40;45.50;29.00
50587;PMS7003;70782;50.514;30.816;2024-03-02T03:59:23;57.30;46.70;29.80
50587;PMS7003;70782;50.514;30.816;2024-03-02T04:00:26;52.90;42.60;27.90
50587;PMS7003;70782;50.514;30.816;2024-03-02T04:01:28;57.90;45.00;29.00
50587;PMS7003;70782;50.514;30.816;2024-03-02T04:02:31;56.10;45.00;28.40
50587;PMS7003;70782;50.514;30.816;2024-03-02T04:03:33;54.80;44.10;28.40
50587;PMS7003;70782;50.514;30.816;2024-03-02T04:04:35;54.60;43.40;28.20
50587;PMS7003;70782;50.514;30.816;2024-03-02T04:05:38;56.20;45.00;28.70
50587;PMS7003;70782;50.514;30.816;2024-03-02T04:06:40;56.70;47.20;29.90
50587;PMS7003;70782;50.514;30.816;2024-03-02T04:07:43;60.90;49.00;30.80
50587;PMS7003;70782;50.514;30.816;2024-03-02T04:08:45;57.30;46.40;29.50
50587;PMS7003;70782;50.514;30.816;2024-03-02T04:09:47;55.40;45.30;28.70
50587;PMS7003;70782;50.514;30.816;2024-03-02T04:10:50;56.20;45.40;29.50
50587;PMS7003;70782;50.514;30.816;2024-03-02T04:11:52;55.20;46.10;29.70
50587;PMS7003;70782;50.514;30.816;2024-03-02T04:12:55;53.60;46.10;30.10
50587;PMS7003;70782;50.514;30.816;2024-03-02T04:13:57;57.30;45.20;29.50
50587;PMS7003;70782;50.514;30.816;2024-03-02T04:15:00;53.27;43.91;29.18
50587;PMS7003;70782;50.514;30.816;2024-03-02T04:16:04;57.40;47.00;28.90
50587;PMS7003;70782;50.514;30.816;2024-03-02T04:17:06;57.00;45.60;29.40
50587;PMS7003;70782;50.514;30.816;2024-03-02T04:18:09;60.80;48.80;31.60
50587;PMS7003;70782;50.514;30.816;2024-03-02T04:19:11;68.50;55.10;34.80
50587;PMS7003;70782;50.514;30.816;2024-03-02T04:20:14;102.18;89.09;49.36
50587;PMS7003;70782;50.514;30.816;2024-03-02T04:21:17;127.60;112.90;62.50
50587;PMS7003;70782;50.514;30.816;2024-03-02T04:22:19;105.50;95.20;54.80
50587;PMS7003;70782;50.514;30.816;2024-03-02T04:23:23;89.50;72.50;45.60
50587;PMS7003;70782;50.514;30.816;2024-03-02T04:24:25;83.10;64.80;41.30
50587;PMS7003;70782;50.514;30.816;2024-03-02T04:25:29;83.70;66.00;43.60
50587;PMS7003;70782;50.514;30.816;2024-03-02T04:26:31;76.90;60.50;38.70
50587;PMS7003;70782;50.514;30.816;2024-03-02T04:27:33;71.00;57.80;36.70
50587;PMS7003;70782;50.514;30.816;2024-03-02T04:28:36;69.60;54.50;34.80
50587;PMS7003;70782;50.514;30.816;2024-03-02T04:29:38;71.90;57.40;36.70
50587;PMS7003;70782;50.514;30.816;2024-03-02T04:30:41;83.20;65.40;40.20
50587;PMS7003;70782;50.514;30.816;2024-03-02T04:31:43;84.30;64.70;40.60
50587;PMS7003;70782;50.514;30.816;2024-03-02T04:32:46;72.20;57.60;37.40
50587;PMS7003;70782;50.514;30.816;2024-03-02T04:33:49;69.70;55.50;35.50
50587;PMS7003;70782;50.514;30.816;2024-03-02T04:34:51;76.60;61.00;38.10
50587;PMS7003;70782;50.514;30.816;2024-03-02T04:35:54;74.50;58.30;37.90
50587;PMS7003;70782;50.514;30.816;2024-03-02T04:36:56;75.70;60.30;38.70
50587;PMS7003;70782;50.514;30.816;2024-03-02T04:37:59;71.40;57.60;35.50
50587;PMS7003;70782;50.514;30.816;2024-03-02T04:39:01;71.10;56.90;35.30
50587;PMS7003;70782;50.514;30.816;2024-03-02T04:40:04;64.90;51.10;30.80
50587;PMS7003;70782;50.514;30.816;2024-03-02T04:41:07;63.80;52.30;33.20
50587;PMS7003;70782;50.514;30.816;2024-03-02T04:42:10;62.40;49.90;32.30
50587;PMS7003;70782;50.514;30.816;2024-03-02T04:43:12;60.80;49.40;31.60
50587;PMS7003;70782;50.514;30.816;2024-03-02T04:44:14;59.00;48.80;30.40
50587;PMS7003;70782;50.514;30.816;2024-03-02T04:45:16;59.00;47.80;30.20
50587;PMS7003;70782;50.514;30.816;2024-03-02T04:46:19;54.00;45.20;30.00
50587;PMS7003;70782;50.514;30.816;2024-03-02T04:47:21;60.10;48.20;30.20
50587;PMS7003;70782;50.514;30.816;2024-03-02T04:48:23;55.20;45.00;29.40
50587;PMS7003;70782;50.514;30.816;2024-03-02T04:49:26;55.20;47.50;29.60
50587;PMS7003;70782;50.514;30.816;2024-03-02T04:50:28;55.90;46.70;30.70
50587;PMS7003;70782;50.514;30.816;2024-03-02T04:51:31;55.20;46.00;30.30
50587;PMS7003;70782;50.514;30.816;2024-03-02T04:52:33;55.30;47.80;29.30
50587;PMS7003;70782;50.514;30.816;2024-03-02T04:53:35;50.60;44.30;29.00
50587;PMS7003;70782;50.514;30.816;2024-03-02T04:54:38;57.30;46.50;30.20
50587;PMS7003;70782;50.514;30.816;2024-03-02T04:55:40;78.40;60.20;37.00
50587;PMS7003;70782;50.514;30.816;2024-03-02T04:56:43;76.30;60.30;35.10
50587;PMS7003;70782;50.514;30.816;2024-03-02T04:57:45;80.50;61.50;39.40
50587;PMS7003;70782;50.514;30.816;2024-03-02T04:58:47;72.00;56.70;35.70
50587;PMS7003;70782;50.514;30.816;2024-03-02T04:59:49;62.33;50.56;32.67
50587;PMS7003;70782;50.514;30.816;2024-03-02T05:00:52;61.30;49.60;32.00
50587;PMS7003;70782;50.514;30.816;2024-03-02T05:01:54;59.10;49.00;30.60
50587;PMS7003;70782;50.514;30.816;2024-03-02T05:02:57;56.60;47.10;30.40
50587;PMS7003;70782;50.514;30.816;2024-03-02T05:04:00;59.80;46.20;30.40
50587;PMS7003;70782;50.514;30.816;2024-03-02T05:05:03;57.70;48.70;30.50
50587;PMS7003;70782;50.514;30.816;2024-03-02T05:06:06;75.60;59.70;36.20
50587;PMS7003;70782;50.514;30.816;2024-03-02T05:07:08;72.50;57.30;36.60
50587;PMS7003;70782;50.514;30.816;2024-03-02T05:08:11;66.90;52.50;34.10
50587;PMS7003;70782;50.514;30.816;2024-03-02T05:09:13;72.33;57.33;36.89
50587;PMS7003;70782;50.514;30.816;2024-03-02T05:10:15;60.90;50.10;33.20
50587;PMS7003;70782;50.514;30.816;2024-03-02T05:11:18;61.20;50.50;31.10
50587;PMS7003;70782;50.514;30.816;2024-03-02T05:12:20;61.78;51.22;33.89
50587;PMS7003;70782;50.514;30.816;2024-03-02T05:13:22;67.40;54.70;34.50
50587;PMS7003;70782;50.514;30.816;2024-03-02T05:14:25;67.50;54.50;36.20
50587;PMS7003;70782;50.514;30.816;2024-03-02T05:15:27;73.40;57.00;38.20
50587;PMS7003;70782;50.514;30.816;2024-03-02T05:16:33;80.50;63.80;41.60
50587;PMS7003;70782;50.514;30.816;2024-03-02T05:17:37;85.20;65.40;40.90
50587;PMS7003;70782;50.514;30.816;2024-03-02T05:18:40;102.20;89.00;55.90
50587;PMS7003;70782;50.514;30.816;2024-03-02T05:19:42;94.80;82.10;51.10
50587;PMS7003;70782;50.514;30.816;2024-03-02T05:20:45;83.10;65.20;42.70
50587;PMS7003;70782;50.514;30.816;2024-03-02T05:21:47;88.40;70.90;48.20
50587;PMS7003;70782;50.514;30.816;2024-03-02T05:22:49;83.20;66.40;43.10
50587;PMS7003;70782;50.514;30.816;2024-03-02T05:23:54;81.00;64.40;43.20
50587;PMS7003;70782;50.514;30.816;2024-03-02T05:24:56;66.20;54.10;36.30
50587;PMS7003;70782;50.514;30.816;2024-03-02T05:25:59;62.20;49.80;33.30
50587;PMS7003;70782;50.514;30.816;2024-03-02T05:27:01;55.90;45.40;30.00
50587;PMS7003;70782;50.514;30.816;2024-03-02T05:28:04;55.00;46.60;30.00
50587;PMS7003;70782;50.514;30.816;2024-03-02T05:29:07;53.91;44.55;28.73
50587;PMS7003;70782;50.514;30.816;2024-03-02T05:30:10;56.80;46.60;29.50
50587;PMS7003;70782;50.514;30.816;2024-03-02T05:31:16;57.70;47.10;30.30
50587;PMS7003;70782;50.514;30.816;2024-03-02T05:32:19;52.80;45.00;29.30
50587;PMS7003;70782;50.514;30.816;2024-03-02T05:33:21;55.60;45.90;30.10
50587;PMS7003;70782;50.514;30.816;2024-03-02T05:34:23;57.60;44.80;28.40
50587;PMS7003;70782;50.514;30.816;2024-03-02T05:35:26;54.80;45.20;29.80
50587;PMS7003;70782;50.514;30.816;2024-03-02T05:36:28;54.10;44.00;28.50
50587;PMS7003;70782;50.514;30.816;2024-03-02T05:37:31;53.80;44.30;28.10
50587;PMS7003;70782;50.514;30.816;2024-03-02T05:38:36;53.30;44.40;28.80
50587;PMS7003;70782;50.514;30.816;2024-03-02T05:39:38;56.20;45.20;28.90
50587;PMS7003;70782;50.514;30.816;2024-03-02T05:40:41;57.10;45.80;29.40
50587;PMS7003;70782;50.514;30.816;2024-03-02T05:41:43;47.20;39.30;27.90
50587;PMS7003;70782;50.514;30.816;2024-03-02T05:42:46;55.60;42.50;26.20
50587;PMS7003;70782;50.514;30.816;2024-03-02T05:43:48;53.70;44.80;29.70
50587;PMS7003;70782;50.514;30.816;2024-03-02T05:44:51;50.00;43.00;27.20
50587;PMS7003;70782;50.514;30.816;2024-03-02T05:45:53;37.50;32.70;15.60
50587;PMS7003;70782;50.514;30.816;2024-03-02T05:46:55;55.80;45.70;28.60
50587;PMS7003;70782;50.514;30.816;2024-03-02T05:47:58;55.50;44.10;28.00